• Join FlightAware (Why Join?)
  • Login
  • US Flag 
02:16AM EST


 

Airport Tracker/Info


-or-


 

Live Flight TrackerFlight Track Log ✈ SWA983 ✈ 18-Apr-2013 ✈ KISP - KTPA

Flight Track Log - Related Links

Times and Time Zones

All times are in EDT time to prevent confusion due to time zone crossing. See the SWA983 flight status page for this flight to view local times or setup timezone preferences in your user account.

Time Position Orientation Groundspeed Altitude Reporting Facility
EDT Latitude Longitude Course Direction KTS MPH feet Rate Location/Type
05:22PM 40.8378 -73.0600 217° Southwest 204 235 2,100  Level Boston Center
05:23PM 40.8486 -72.9889 79° East 205 236 4,800 2,820 Climbing Boston Center
05:24PM 40.8303 -72.9064 106° East 201 231 7,700 3,000 Climbing Boston Center
05:25PM 40.8014 -72.8047 111° Southeast 241 277 10,700 3,120 Climbing Boston Center
05:26PM 40.7578 -72.7086 121° Southeast 269 310 14,000 3,240 Climbing Boston Center
05:27PM 40.6808 -72.6564 153° Southeast 296 341 17,300 2,280 Climbing Boston Center
05:28PM 40.5503 -72.7497 217° Southwest  Level FlightAware Approximate
05:28PM 40.6328 -72.7436 234° Southwest 206 237 18,700  Level Boston Center
05:29PM 40.5989 -72.8856 253° West 272 313 21,000 2,280 Climbing Boston Center
05:30PM 40.5836 -73.0247 262° West 341 392 23,200 2,340 Climbing Boston Center
05:31PM 40.5892 -73.1753 273° West 382 440 25,700 780 Climbing Boston Center
05:34PM 40.5692 -73.5250 266° West 404 465 26,000 420 Climbing New York Center
05:35PM 40.5367 -73.6683 253° West 410 472 27,300 1,380 Climbing New York Center
05:36PM 40.5036 -73.8144 253° West 416 479 28,900 1,380 Climbing New York Center
05:37PM 40.4689 -73.9519 252° West 423 487 30,200 1,500 Climbing New York Center
05:38PM 40.4333 -74.1083 253° West 434 499 31,900 1,500 Climbing New York Center
05:39PM 40.3975 -74.2647 253° West 444 511 33,300 1,620 Climbing New York Center
05:40PM 40.3633 -74.4211 254° West 450 518 35,200 1,320 Climbing New York Center
05:41PM 40.3253 -74.5769 252° West 456 525 36,000 360 Climbing New York Center
05:42PM 40.2889 -74.7272 252° West 451 519 36,000  Level New York Center
05:43PM 40.2519 -74.8964 254° West 445 512 36,000  Level New York Center
05:44PM 40.2153 -75.0464 252° West 445 512 36,000  Level New York Center
05:45PM 40.1764 -75.1936 251° West 440 506 36,000  Level New York Center
05:46PM 40.1417 -75.3433 253° West 440 506 36,000  Level New York Center
05:47PM 40.0700 -75.4689 233° Southwest 421 484 36,000  Level New York Center
05:48PM 39.9883 -75.5800 226° Southwest 432 497 36,000  Level New York Center
05:49PM 39.9089 -75.6908 227° Southwest 432 497 36,000  Level New York Center
05:50PM 39.8347 -75.8128 232° Southwest 432 497 36,000  Level New York Center
05:51PM 39.7128 -76.0042 230° Southwest 438 504 36,000  Level Washington Center
05:52PM 39.6333 -76.1250 230° Southwest 438 504 36,000  Level Washington Center
05:53PM 39.5597 -76.2428 231° Southwest 433 498 36,000  Level Washington Center
05:54PM 39.4819 -76.3606 229° Southwest 433 498 36,000  Level Washington Center
05:55PM 39.4083 -76.4753 230° Southwest 426 490 36,000  Level Washington Center
05:56PM 39.3303 -76.5925 229° Southwest 431 496 36,000  Level Washington Center
05:57PM 39.2564 -76.7094 231° Southwest 431 496 36,000  Level Washington Center
05:58PM 39.1822 -76.8233 230° Southwest 425 489 36,000  Level Washington Center
05:59PM 39.1081 -76.9397 231° Southwest 425 489 36,000  Level Washington Center
06:00PM 39.0317 -77.0506 228° Southwest 425 489 36,000  Level Washington Center
06:01PM 38.9428 -77.1503 221° Southwest 425 489 36,000  Level Washington Center
06:02PM 38.8711 -77.2261 219° Southwest 425 489 36,000  Level Washington Center
06:03PM 38.7778 -77.3306 221° Southwest 419 482 36,000  Level Washington Center
06:04PM 38.6867 -77.4242 219° Southwest 414 476 36,000  Level Washington Center
06:05PM 38.6019 -77.5203 222° Southwest 414 476 36,000  Level Washington Center
06:06PM 38.5128 -77.6161 220° Southwest 414 476 36,000  Level Washington Center
06:07PM 38.4278 -77.7119 221° Southwest 414 476 36,000  Level Washington Center
06:08PM 38.3383 -77.8072 220° Southwest 414 476 36,000  Level Washington Center
06:09PM 38.2489 -77.9053 221° Southwest 414 476 36,000  Level Washington Center
06:10PM 38.1575 -78.0028 220° Southwest 419 482 36,100 600 Climbing Washington Center
06:11PM 38.0700 -78.0975 220° Southwest 419 482 37,300 840 Climbing Washington Center
06:12PM 37.9783 -78.1919 219° Southwest 424 488 37,800 300 Climbing Washington Center
06:13PM 37.8761 -78.2883 217° Southwest 443 510 38,000 60 Climbing Washington Center
06:14PM 37.7758 -78.3847 217° Southwest 458 527 38,000  Level Washington Center
06:15PM 37.6650 -78.4881 216° Southwest 458 527 38,000  Level Washington Center
06:16PM 37.5644 -78.5811 216° Southwest 458 527 38,000  Level Washington Center
06:17PM 37.4642 -78.6742 216° Southwest 458 527 38,000  Level Washington Center
06:18PM 37.3658 -78.7694 218° Southwest 458 527 38,000  Level Washington Center
06:19PM 37.2631 -78.8592 215° Southwest 458 527 38,000  Level Washington Center
06:20PM 37.1711 -78.9464 217° Southwest 458 527 38,000  Level Washington Center
06:21PM 37.0683 -79.0408 216° Southwest 458 527 38,000  Level Washington Center
06:22PM 36.9675 -79.1350 217° Southwest 464 534 38,000  Level Washington Center
06:23PM 36.8667 -79.2267 216° Southwest 464 534 38,000  Level Washington Center
06:24PM 36.7656 -79.3203 217° Southwest 464 534 38,000  Level Washington Center
06:25PM 36.6539 -79.4236 217° Southwest 464 534 38,000  Level Washington Center
06:28PM 36.4314 -79.6236 216° Southwest 459 528 38,000  Level Atlanta Center
06:29PM 36.3306 -79.7169 217° Southwest 459 528 38,000  Level Atlanta Center
06:30PM 36.2211 -79.8128 215° Southwest 459 528 38,000  Level Atlanta Center
06:31PM 36.1200 -79.9056 217° Southwest 459 528 38,000  Level Atlanta Center
06:32PM 36.0164 -79.9878 213° Southwest 459 528 38,000  Level Atlanta Center
06:33PM 35.9017 -80.0472 203° Southwest 449 517 38,000  Level Atlanta Center
06:34PM 35.7947 -80.0986 201° Southwest 449 517 38,000  Level Atlanta Center
06:35PM 35.6778 -80.1581 202° Southwest 449 517 38,000  Level Atlanta Center
06:36PM 35.5525 -80.2253 204° Southwest 449 517 38,000  Level Atlanta Center
06:37PM 35.4356 -80.2842 202° Southwest 449 517 38,000  Level Atlanta Center
06:38PM 35.3203 -80.3403 202° Southwest 449 517 38,000  Level Atlanta Center
06:41PM 34.9036 -80.5461 202° Southwest 450 518 38,000  Level Jacksonville Center
06:43PM 34.7630 -80.6078 200° South  Level FlightAware Approximate
06:43PM 34.6761 -80.6608 200° South 450 518 38,000  Level Jacksonville Center
06:44PM 34.5417 -80.7222 201° Southwest 460 529 38,000  Level Jacksonville Center
06:45PM 34.4217 -80.7858 204° Southwest 468 539 38,000  Level Jacksonville Center
06:46PM 34.3078 -80.8311 198° South 463 533 38,000  Level Jacksonville Center
06:47PM 34.2064 -80.8864 204° Southwest 452 520 38,000  Level Jacksonville Center
06:48PM 34.0883 -80.9442 202° Southwest 452 520 38,000  Level Jacksonville Center
06:49PM 33.9725 -81.0044 203° Southwest 452 520 38,000  Level Jacksonville Center
06:50PM 33.8439 -81.0597 200° South 452 520 38,000  Level Jacksonville Center
06:51PM 33.7383 -81.1169 204° Southwest 452 520 38,000  Level Jacksonville Center
06:52PM 33.6181 -81.1767 202° Southwest 459 528 38,000  Level Jacksonville Center
06:53PM 33.5019 -81.2336 202° Southwest 459 528 38,000  Level Jacksonville Center
06:54PM 33.3858 -81.2906 202° Southwest 459 528 38,000  Level Jacksonville Center
06:55PM 33.2697 -81.3472 202° Southwest 454 522 38,000  Level Jacksonville Center
06:56PM 33.1514 -81.4064 203° Southwest 454 522 38,000  Level Jacksonville Center
06:57PM 33.0311 -81.4606 201° Southwest 454 522 38,000  Level Jacksonville Center
06:58PM 32.9147 -81.5192 203° Southwest 454 522 38,000  Level Jacksonville Center
06:59PM 32.7986 -81.5778 203° Southwest 454 522 38,000  Level Jacksonville Center
07:00PM 32.6697 -81.6389 202° Southwest 454 522 38,000  Level Jacksonville Center
07:01PM 32.5617 -81.6872 201° Southwest 460 529 38,000  Level Jacksonville Center
07:02PM 32.4350 -81.7506 203° Southwest 455 524 38,000  Level Jacksonville Center
07:03PM 32.3183 -81.8061 202° Southwest 455 524 38,000  Level Jacksonville Center
07:04PM 32.2125 -81.8564 202° Southwest 455 524 38,000  Level Jacksonville Center
07:05PM 32.0833 -81.9167 202° Southwest 455 524 38,000  Level Jacksonville Center
07:06PM 31.9772 -81.9692 203° Southwest 455 524 38,000  Level Jacksonville Center
07:07PM 31.8442 -82.0219 199° South 455 524 38,000  Level Jacksonville Center
07:08PM 31.7233 -82.0694 198° South 461 531 38,000  Level Jacksonville Center
07:09PM 31.6150 -82.1144 199° South 461 531 38,000  Level Jacksonville Center
07:10PM 31.4942 -82.1664 200° South 466 536 38,000  Level Jacksonville Center
07:11PM 31.3650 -82.1869 188° South 461 531 38,000  Level Jacksonville Center
07:12PM 31.2356 -82.2025 186° South 468 539 38,000  Level Jacksonville Center
07:13PM 31.1042 -82.2156 185° South 468 539 38,000  Level Jacksonville Center
07:14PM 30.9747 -82.2261 184° South 468 539 38,000  Level Jacksonville Center
07:15PM 30.8389 -82.2392 185° South 481 554 38,000  Level Jacksonville Center
07:16PM 30.7075 -82.2522 185° South 481 554 38,000  Level Jacksonville Center
07:17PM 30.5781 -82.2653 185° South 481 554 38,000  Level Jacksonville Center
07:18PM 30.4319 -82.2733 183° South 481 554 38,000  Level Jacksonville Center
07:19PM 30.3006 -82.2886 186° South 481 554 38,000 -720 Level Jacksonville Center
07:20PM 30.1711 -82.3014 185° South 473 544 36,600 -1,980 Descending Jacksonville Center
07:21PM 30.0397 -82.3119 184° South 473 544 34,100 -2,160 Descending Jacksonville Center
07:22PM 29.9228 -82.3294 187° South 478 550 32,300 -2,100 Descending Jacksonville Center
07:23PM 29.7872 -82.3372 183° South 464 534 30,000 -2,100 Descending Jacksonville Center
07:24PM 29.6661 -82.3500 185° South 452 520 28,100 -1,620 Descending Jacksonville Center
07:25PM 29.5472 -82.3531 181° South 440 506 26,800 -1,440 Descending Jacksonville Center
07:26PM 29.4469 -82.3442 176° South 420 483 25,300 -1,680 Descending Jacksonville Center
07:27PM 29.3383 -82.3303 174° South 408 470 23,500 -1,860 Descending Jacksonville Center
07:28PM 29.2297 -82.3167 174° South 397 457 21,600 -1,860 Descending Jacksonville Center
07:29PM 29.1275 -82.3056 175° South 385 443 19,800 -1,800 Descending Jacksonville Center
07:30PM 29.0292 -82.2917 173° South 372 428 18,100 -1,740 Descending Jacksonville Center
07:31PM 28.9372 -82.2806 174° South 352 405 16,400 -1,740 Descending Jacksonville Center
07:32PM 28.8456 -82.2717 175° South 342 394 14,700 -1,320 Descending Jacksonville Center
07:34PM 28.6500 -82.2500 174° South 296 341 12,300 -1,200 Descending Tampa TRACON
07:35PM 28.5667 -82.2500 180° South 294 338 10,900 -1,440 Descending Tampa TRACON
07:36PM 28.4833 -82.2500 180° South 290 334 9,500 -1,440 Descending Tampa TRACON
07:37PM 28.4167 -82.2500 180° South 278 320 8,000 -1,260 Descending Tampa TRACON
07:38PM 28.3333 -82.2833 199° South 273 314 7,000 -1,200 Descending Tampa TRACON
07:39PM 28.2833 -82.3333 221° Southwest 278 320 5,700 -1,440 Descending Tampa TRACON
07:41PM 28.2333 -82.4000 230° Southwest 276 318 4,000 -1,200 Descending Tampa TRACON
07:42PM 28.1667 -82.4833 228° Southwest 274 315 3,000 -660 Descending Tampa TRACON
07:43PM 28.1167 -82.5167 210° Southwest 218 251 2,600 -780 Descending Tampa TRACON
07:44PM 28.0833 -82.5333 204° Southwest 202 232 1,700 -1,020 Descending Tampa TRACON
07:45PM 28.0333 -82.5333 180° South 164 189 800 -900 Descending Tampa TRACON